Time;durP1;ratioP1;P1;durP2;ratioP2;P2;SDS_P1;SDS_P2;PMS_P1;PMS_P2;Temp;Humidity;BMP_temperature;BMP_pressure;BME280_temperature;BME280_humidity;BME280_pressure;Samples;Min_cycle;Max_cycle;Signal;HPM_P1;HPM_P2
2021/07/09 00:02:51;;;;;;;;;;;;;;;;;;;;;
2021/07/09 00:05:48;;;;;;;7.93;2.07;;;18.90;99.90;;;;;;4963993;28;20225;-80
2021/07/09 00:08:15;;;;;;;4.63;2.50;;;18.90;99.90;;;;;;4968277;28;20475;-80
2021/07/09 00:10:58;;;;;;;2.17;1.97;;;18.90;99.90;;;;;;4975540;28;20468;-80
2021/07/09 00:17:14;;;;;;;2.27;2.00;;;18.80;99.90;;;;;;4997535;28;20455;-80
2021/07/09 00:23:49;;;;;;;;;;;;;;;;;;;;;
2021/07/09 00:27:17;;;;;;;2.33;2.13;;;18.90;99.90;;;;;;4966919;28;20457;-80
2021/07/09 00:30:05;;;;;;;2.57;2.37;;;18.90;99.90;;;;;;4916217;28;20481;-80
2021/07/09 00:33:45;;;;;;;2.10;1.90;;;18.90;99.90;;;;;;4907844;29;20481;-80
2021/07/09 00:36:20;;;;;;;2.00;1.90;;;18.90;99.90;;;;;;4919359;28;20449;-80
2021/07/09 00:39:48;;;;;;;2.80;2.03;;;18.90;99.90;;;;;;4910225;29;20464;-80
2021/07/09 00:42:46;;;;;;;1.80;1.70;;;18.90;99.90;;;;;;4867231;29;20500;-80
2021/07/09 00:46:09;;;;;;;2.10;1.80;;;18.90;99.90;;;;;;4915572;28;20495;-80
2021/07/09 00:48:40;;;;;;;1.80;1.70;;;18.80;99.90;;;;;;4926963;28;20459;-80
2021/07/09 00:51:48;;;;;;;1.77;1.67;;;18.80;99.90;;;;;;4937418;28;20525;-80
2021/07/09 00:54:26;;;;;;;;;;;;;;;;;;;;;
2021/07/09 01:00:37;;;;;;;3.00;1.97;;;18.80;99.90;;;;;;4944391;28;20433;-80
2021/07/09 01:04:07;;;;;;;2.00;1.90;;;18.80;99.90;;;;;;4980892;28;20478;-80
2021/07/09 01:06:49;;;;;;;2.50;2.30;;;18.90;99.90;;;;;;4947913;28;20514;-80
2021/07/09 01:09:15;;;;;;;2.60;2.10;;;18.80;99.90;;;;;;4949120;28;20535;-80
2021/07/09 01:11:52;;;;;;;2.40;2.20;;;18.80;99.90;;;;;;4929224;28;20478;-80
2021/07/09 01:14:22;;;;;;;3.10;2.40;;;18.80;99.90;;;;;;4999169;28;20703;-80
2021/07/09 01:17:00;;;;;;;2.17;2.07;;;18.80;99.90;;;;;;4993051;28;21126;-80
2021/07/09 01:23:40;;;;;;;2.50;2.30;;;18.80;99.90;;;;;;4899616;29;20498;-80
2021/07/09 01:33:23;;;;;;;2.40;1.90;;;18.80;99.90;;;;;;4885725;29;20533;-80
2021/07/09 01:36:13;;;;;;;2.43;2.17;;;18.70;99.90;;;;;;4955981;28;20463;-80
2021/07/09 01:39:05;;;;;;;2.30;2.10;;;18.70;99.90;;;;;;4976111;28;20991;-80
2021/07/09 01:41:44;;;;;;;3.90;2.50;;;18.70;99.90;;;;;;4975869;28;20514;-80
2021/07/09 01:48:13;;;;;;;2.90;2.30;;;18.70;99.90;;;;;;4903860;29;20487;-80
2021/07/09 01:51:27;;;;;;;2.37;1.80;;;18.70;99.90;;;;;;4889852;29;20508;-80
2021/07/09 01:54:18;;;;;;;2.40;1.93;;;18.70;99.90;;;;;;4901184;29;20470;-80
2021/07/09 01:56:44;;;;;;;2.60;2.10;;;18.60;99.90;;;;;;4921477;29;20449;-80
2021/07/09 01:59:12;;;;;;;2.40;2.20;;;18.60;99.90;;;;;;4962586;28;20217;-80
2021/07/09 02:02:04;;;;;;;2.30;2.10;;;18.60;99.90;;;;;;4939987;28;20611;-80
2021/07/09 02:04:49;;;;;;;2.43;2.33;;;18.60;99.90;;;;;;4945548;28;20471;-80
2021/07/09 02:11:05;;;;;;;3.03;2.10;;;18.70;99.90;;;;;;4944629;28;20495;-80
2021/07/09 02:14:22;;;;;;;2.23;2.13;;;18.70;99.90;;;;;;4971068;28;20519;-77
2021/07/09 02:17:42;;;;;;;3.30;2.50;;;18.70;99.90;;;;;;4884282;29;20456;-77
2021/07/09 02:20:27;;;;;;;4.57;2.00;;;18.70;99.90;;;;;;4909843;29;20471;-77
2021/07/09 02:23:01;;;;;;;2.73;2.53;;;18.70;99.90;;;;;;4884802;29;20460;-77
2021/07/09 02:25:37;;;;;;;2.53;2.33;;;18.70;99.90;;;;;;4889162;29;20463;-78
2021/07/09 02:28:27;;;;;;;2.50;2.30;;;18.70;99.90;;;;;;4944152;28;20431;-80
2021/07/09 02:30:53;;;;;;;2.20;2.00;;;18.70;99.90;;;;;;4943179;28;20465;-78
2021/07/09 02:36:59;;;;;;;2.00;1.87;;;18.70;99.90;;;;;;4973632;28;20267;-79
2021/07/09 02:39:37;;;;;;;2.73;2.37;;;18.70;99.90;;;;;;4997024;28;20464;-78
2021/07/09 02:42:49;;;;;;;3.23;2.33;;;18.70;99.90;;;;;;4965708;28;20524;-78
2021/07/09 02:45:37;;;;;;;5.03;2.70;;;18.70;99.90;;;;;;4973129;28;20502;-79
2021/07/09 02:48:23;;;;;;;3.37;3.03;;;18.70;99.90;;;;;;4958371;28;21154;-78
2021/07/09 02:50:58;;;;;;;3.40;2.43;;;18.60;99.90;;;;;;4989397;23;20503;-78
2021/07/09 02:53:59;;;;;;;2.97;2.07;;;18.70;99.90;;;;;;4990567;28;20613;-78
2021/07/09 02:56:39;;;;;;;2.33;2.17;;;18.70;99.90;;;;;;4964592;28;20803;-78
2021/07/09 02:59:11;;;;;;;2.90;2.70;;;18.70;99.90;;;;;;4974968;28;20513;-78
2021/07/09 03:02:22;;;;;;;3.13;2.83;;;18.60;99.90;;;;;;4999205;23;20469;-79
2021/07/09 03:05:17;;;;;;;3.13;2.83;;;18.60;99.90;;;;;;4994944;28;20460;-79
2021/07/09 03:07:46;;;;;;;2.50;2.30;;;18.60;99.90;;;;;;4987327;28;20532;-81
2021/07/09 03:10:45;;;;;;;2.40;2.20;;;18.60;99.90;;;;;;4971745;28;20418;-78
2021/07/09 03:13:36;;;;;;;2.47;2.30;;;18.60;99.90;;;;;;4943024;28;20472;-78
2021/07/09 03:16:26;;;;;;;2.40;2.20;;;18.60;99.90;;;;;;4975901;28;20936;-78
2021/07/09 03:18:55;;;;;;;3.60;2.70;;;18.50;99.90;;;;;;4978929;28;20468;-80
2021/07/09 03:26:00;;;;;;;2.40;2.20;;;18.50;99.90;;;;;;4970633;28;20559;-78
2021/07/09 03:28:57;;;;;;;2.70;2.30;;;18.50;99.90;;;;;;5003995;28;20482;-78
2021/07/09 03:31:46;;;;;;;3.00;2.00;;;18.50;99.90;;;;;;4959181;28;20476;-78
2021/07/09 03:34:50;;;;;;;;;;;;;;;;;;;;;
2021/07/09 03:38:00;;;;;;;3.00;2.80;;;18.50;99.90;;;;;;4998549;28;20483;-78
2021/07/09 03:40:29;;;;;;;2.70;2.50;;;18.50;99.90;;;;;;4980511;28;20457;-78
2021/07/09 03:42:55;;;;;;;2.70;2.50;;;18.40;99.90;;;;;;4976089;28;20440;-78
2021/07/09 03:46:10;;;;;;;2.50;2.30;;;18.40;99.90;;;;;;4977943;28;20439;-78
2021/07/09 03:48:35;;;;;;;2.70;2.20;;;18.40;99.90;;;;;;4959397;28;20464;-78
2021/07/09 03:51:11;;;;;;;2.80;2.60;;;18.40;99.90;;;;;;4956243;28;20540;-78
2021/07/09 03:53:39;;;;;;;3.20;2.97;;;18.40;99.90;;;;;;4962760;28;20282;-78
2021/07/09 03:56:05;;;;;;;2.93;2.40;;;18.30;99.90;;;;;;4990574;28;20469;-78
2021/07/09 03:58:32;;;;;;;2.70;2.50;;;18.20;99.90;;;;;;4961436;28;20563;-78
2021/07/09 04:00:58;;;;;;;2.87;2.67;;;18.20;99.90;;;;;;4975256;28;20217;-79
2021/07/09 04:03:33;;;;;;;3.00;2.70;;;18.20;99.90;;;;;;4963280;28;20464;-79
2021/07/09 04:06:02;;;;;;;3.60;2.90;;;18.20;99.90;;;;;;4965121;28;20473;-78
2021/07/09 04:08:40;;;;;;;2.33;2.13;;;18.20;99.90;;;;;;4972450;28;20475;-78
2021/07/09 04:11:06;;;;;;;5.53;2.40;;;18.30;99.90;;;;;;4979400;28;20501;-78
2021/07/09 04:13:32;;;;;;;3.20;2.90;;;18.30;99.90;;;;;;4974842;28;20495;-79
2021/07/09 04:16:01;;;;;;;3.70;3.40;;;18.30;99.90;;;;;;4972450;28;20760;-81
2021/07/09 04:18:31;;;;;;;4.60;3.80;;;18.30;99.90;;;;;;4969186;28;20463;-78
2021/07/09 04:21:01;;;;;;;4.30;3.87;;;18.30;99.90;;;;;;4962267;28;20486;-79
2021/07/09 04:23:31;;;;;;;3.93;3.53;;;18.30;99.90;;;;;;4972656;28;20999;-78
2021/07/09 04:26:03;;;;;;;5.27;4.17;;;18.30;99.90;;;;;;4966092;28;20873;-78
2021/07/09 04:28:33;;;;;;;4.60;4.10;;;18.30;99.90;;;;;;4948009;28;20469;-78
2021/07/09 04:31:02;;;;;;;5.67;4.10;;;18.20;99.90;;;;;;4976362;28;20457;-78
2021/07/09 04:33:53;;;;;;;5.07;3.97;;;18.20;99.90;;;;;;4975091;28;20460;-78
2021/07/09 04:36:19;;;;;;;4.63;4.23;;;18.20;99.90;;;;;;4934651;28;20245;-78
2021/07/09 04:38:48;;;;;;;4.10;3.50;;;18.20;99.90;;;;;;4958933;28;20467;-78
2021/07/09 04:41:30;;;;;;;3.63;3.33;;;18.30;99.90;;;;;;4968930;28;20568;-78
2021/07/09 04:44:26;;;;;;;3.90;3.20;;;18.30;99.90;;;;;;4966895;28;20466;-78
2021/07/09 04:47:02;;;;;;;4.70;4.00;;;18.30;99.90;;;;;;4969578;28;20963;-78
2021/07/09 04:49:51;;;;;;;4.80;4.30;;;18.30;99.90;;;;;;4961952;28;20487;-78
2021/07/09 04:52:37;;;;;;;5.80;3.80;;;18.30;99.90;;;;;;4882032;29;20491;-78
2021/07/09 04:55:17;;;;;;;5.13;4.27;;;18.20;99.90;;;;;;4911241;29;20472;-78
2021/07/09 04:57:51;;;;;;;4.30;3.90;;;18.20;99.90;;;;;;4947768;28;20476;-78
2021/07/09 05:00:21;;;;;;;6.40;4.20;;;18.20;99.90;;;;;;4965913;28;20475;-79
2021/07/09 05:02:59;;;;;;;5.30;4.20;;;18.20;99.90;;;;;;4988514;28;20468;-79
2021/07/09 05:05:36;;;;;;;4.40;4.00;;;18.20;99.90;;;;;;4925864;28;20476;-79
2021/07/09 05:12:04;;;;;;;8.43;7.53;;;18.20;99.90;;;;;;4979420;28;20503;-78
2021/07/09 05:15:22;;;;;;;8.37;5.80;;;18.10;99.90;;;;;;4963073;28;20551;-79
2021/07/09 05:17:51;;;;;;;4.73;4.27;;;18.20;99.90;;;;;;4966719;28;20459;-79
2021/07/09 05:20:32;;;;;;;8.30;5.93;;;18.10;99.90;;;;;;4971495;28;20512;-81
2021/07/09 05:22:59;;;;;;;5.60;4.60;;;18.10;99.90;;;;;;4998298;28;20668;-79
2021/07/09 05:25:25;;;;;;;5.80;4.83;;;18.10;99.90;;;;;;5015949;28;20463;-78
2021/07/09 05:27:57;;;;;;;5.87;4.80;;;18.10;99.90;;;;;;4999323;28;20459;-79
2021/07/09 05:30:23;;;;;;;7.03;5.03;;;18.20;99.90;;;;;;4965372;28;20453;-79
2021/07/09 05:33:09;;;;;;;5.47;4.70;;;18.20;99.90;;;;;;4956312;28;20463;-82
2021/07/09 05:35:46;;;;;;;5.90;5.30;;;18.20;99.90;;;;;;4983559;28;20440;-82
2021/07/09 05:38:15;;;;;;;6.60;6.00;;;18.10;99.90;;;;;;4965770;28;20463;-82
2021/07/09 05:40:59;;;;;;;5.57;5.07;;;18.10;99.90;;;;;;4958903;28;20462;-78
2021/07/09 05:43:25;;;;;;;8.93;6.60;;;18.10;99.90;;;;;;4979840;28;20543;-79
2021/07/09 05:45:54;;;;;;;7.77;6.80;;;18.10;99.90;;;;;;4948221;28;20488;-78
2021/07/09 05:48:20;;;;;;;9.00;6.77;;;18.10;99.90;;;;;;4991550;28;20308;-79
2021/07/09 05:50:46;;;;;;;8.70;7.00;;;18.10;99.90;;;;;;4947369;28;20503;-79
2021/07/09 05:53:11;;;;;;;10.00;7.43;;;18.10;99.90;;;;;;4979984;28;20300;-79
2021/07/09 05:55:37;;;;;;;9.13;7.37;;;18.00;99.90;;;;;;4961163;28;20257;-79
2021/07/09 05:58:12;;;;;;;9.30;8.07;;;18.00;99.90;;;;;;4971196;28;20224;-79
2021/07/09 06:00:41;;;;;;;9.27;8.37;;;18.00;99.90;;;;;;5005644;28;20245;-79
2021/07/09 06:03:07;;;;;;;7.53;6.83;;;18.00;99.90;;;;;;4990947;28;20460;-79
2021/07/09 06:05:58;;;;;;;10.33;7.60;;;18.00;99.90;;;;;;4977342;28;20516;-79
2021/07/09 06:08:35;;;;;;;13.70;8.73;;;18.00;99.90;;;;;;5009241;28;20491;-80
2021/07/09 06:11:01;;;;;;;10.20;7.80;;;18.00;99.90;;;;;;4979925;28;20469;-78
2021/07/09 06:13:42;;;;;;;11.60;8.77;;;18.00;99.90;;;;;;4986702;28;20452;-78
2021/07/09 06:16:08;;;;;;;12.13;9.43;;;18.00;99.90;;;;;;4966199;28;20239;-78
2021/07/09 06:18:34;;;;;;;10.13;8.43;;;17.90;99.90;;;;;;4970576;28;20551;-79
2021/07/09 06:21:02;;;;;;;9.37;8.07;;;17.90;99.90;;;;;;4959404;28;20320;-79
2021/07/09 06:23:28;;;;;;;10.70;8.53;;;18.00;99.90;;;;;;4983676;28;20452;-78
2021/07/09 06:26:05;;;;;;;11.20;8.40;;;17.90;99.90;;;;;;4990866;28;20460;-77
2021/07/09 06:28:30;;;;;;;10.50;9.03;;;17.90;99.90;;;;;;4946968;28;20468;-78
2021/07/09 06:30:56;;;;;;;12.07;9.67;;;18.00;99.90;;;;;;4977979;28;20471;-77
2021/07/09 06:33:22;;;;;;;11.67;9.03;;;18.00;99.90;;;;;;4970740;28;20692;-78
2021/07/09 06:35:48;;;;;;;14.50;9.30;;;18.00;99.90;;;;;;4979442;28;20296;-79
2021/07/09 06:38:14;;;;;;;13.37;9.47;;;18.00;99.90;;;;;;4972335;28;20346;-78
2021/07/09 06:40:43;;;;;;;12.87;9.73;;;17.90;99.90;;;;;;4969475;28;20220;-79
2021/07/09 06:43:13;;;;;;;15.87;11.33;;;18.00;99.90;;;;;;5007998;28;20456;-77
2021/07/09 06:45:42;;;;;;;12.77;10.30;;;17.90;99.90;;;;;;4966151;28;20837;-79
2021/07/09 06:48:15;;;;;;;14.60;10.27;;;18.00;99.90;;;;;;4987748;28;20565;-78
2021/07/09 06:50:53;;;;;;;14.73;10.17;;;18.00;99.90;;;;;;4972134;28;20857;-78
2021/07/09 06:53:32;;;;;;;13.40;10.10;;;18.00;99.90;;;;;;4976207;28;20471;-79
2021/07/09 06:56:45;;;;;;;13.77;9.67;;;18.00;99.90;;;;;;4992006;28;20456;-79
2021/07/09 06:59:17;;;;;;;12.13;9.40;;;18.00;99.90;;;;;;4971944;28;20455;-78
2021/07/09 07:05:36;;;;;;;14.40;9.17;;;18.00;99.90;;;;;;4971519;28;20440;-78
2021/07/09 07:11:39;;;;;;;12.87;9.30;;;18.00;99.90;;;;;;4944482;28;20492;-78
2021/07/09 07:14:05;;;;;;;13.93;10.20;;;18.00;99.90;;;;;;4950276;28;20464;-78
2021/07/09 07:16:31;;;;;;;15.30;9.77;;;18.00;99.90;;;;;;4959288;28;20596;-78
2021/07/09 07:18:57;;;;;;;11.83;9.67;;;18.00;99.90;;;;;;4972462;28;20271;-78
2021/07/09 07:21:43;;;;;;;15.00;10.40;;;18.00;99.90;;;;;;4947803;28;20902;-78
2021/07/09 07:24:08;;;;;;;15.00;10.67;;;18.00;99.90;;;;;;4988010;28;20225;-78
2021/07/09 07:26:34;;;;;;;15.10;11.10;;;18.00;99.90;;;;;;4959560;28;20480;-79
2021/07/09 07:29:00;;;;;;;15.00;11.30;;;18.00;99.90;;;;;;4988674;28;20232;-78
2021/07/09 07:31:26;;;;;;;15.47;10.93;;;18.00;99.90;;;;;;4960885;28;20268;-78
2021/07/09 07:34:05;;;;;;;15.83;10.60;;;18.00;99.90;;;;;;4933820;28;20225;-78
2021/07/09 07:36:34;;;;;;;14.67;11.10;;;18.00;99.90;;;;;;4997891;28;20221;-79
2021/07/09 07:39:00;;;;;;;12.60;9.27;;;18.00;99.90;;;;;;4975911;28;20551;-78
2021/07/09 07:41:25;;;;;;;13.27;10.83;;;18.00;99.90;;;;;;4942062;28;20827;-78
2021/07/09 07:43:51;;;;;;;16.40;11.10;;;18.00;99.90;;;;;;4991816;28;20727;-77
2021/07/09 07:46:17;;;;;;;13.57;11.60;;;18.00;99.90;;;;;;4938668;28;20673;-79
2021/07/09 07:48:43;;;;;;;15.23;10.20;;;18.00;99.90;;;;;;4975439;28;20392;-79
2021/07/09 07:51:09;;;;;;;15.40;10.53;;;18.00;99.90;;;;;;4955765;28;20229;-79
2021/07/09 07:53:36;;;;;;;14.00;9.53;;;18.00;99.90;;;;;;4976640;28;20471;-78
2021/07/09 07:56:03;;;;;;;15.13;11.30;;;18.00;99.90;;;;;;4982581;28;20225;-78
2021/07/09 07:58:30;;;;;;;14.33;11.23;;;18.10;99.90;;;;;;4976236;28;20471;-78
2021/07/09 08:00:57;;;;;;;14.90;11.10;;;18.10;99.90;;;;;;4973339;28;20467;-79
2021/07/09 08:03:23;;;;;;;15.33;11.33;;;18.10;99.90;;;;;;4980175;28;20810;-80
2021/07/09 08:05:50;;;;;;;18.20;11.80;;;18.10;99.90;;;;;;4976167;28;20460;-77
2021/07/09 08:08:16;;;;;;;18.27;12.83;;;18.10;99.90;;;;;;4976961;28;20262;-79
2021/07/09 08:10:42;;;;;;;18.83;12.67;;;18.20;99.90;;;;;;4997232;28;20460;-79
2021/07/09 08:13:08;;;;;;;18.23;11.30;;;18.20;99.90;;;;;;4940020;28;20222;-78
2021/07/09 08:15:36;;;;;;;19.87;13.47;;;18.20;99.90;;;;;;4946090;28;20224;-79
2021/07/09 08:18:03;;;;;;;15.97;12.33;;;18.20;99.90;;;;;;4963434;28;20448;-78
2021/07/09 08:21:15;;;;;;;25.97;11.60;;;18.20;99.90;;;;;;4971959;28;20460;-78
2021/07/09 08:23:50;;;;;;;17.60;11.60;;;18.20;99.90;;;;;;4982914;28;20529;-79
2021/07/09 08:29:56;;;;;;;15.77;12.27;;;18.30;99.90;;;;;;4891586;28;20545;-78
2021/07/09 08:33:41;;;;;;;19.30;13.17;;;18.30;99.90;;;;;;4980990;28;20980;-78
2021/07/09 08:36:03;;;;;;;17.07;11.90;;;18.30;99.90;;;;;;4973922;28;20463;-78
2021/07/09 08:39:18;;;;;;;;;;;;;;;;;;;;;
2021/07/09 08:42:08;;;;;;;18.47;12.77;;;18.40;99.90;;;;;;4987057;28;20468;-78
2021/07/09 08:45:01;;;;;;;19.87;12.90;;;18.40;99.90;;;;;;4947459;28;20444;-78
2021/07/09 08:47:36;;;;;;;20.87;14.80;;;18.50;99.90;;;;;;4951997;28;20231;-79
2021/07/09 08:50:11;;;;;;;19.07;13.23;;;18.50;99.90;;;;;;4954643;28;20586;-80
2021/07/09 08:53:05;;;;;;;19.73;12.70;;;18.60;99.90;;;;;;4961191;28;20494;-79
2021/07/09 08:55:43;;;;;;;18.17;12.77;;;18.60;99.90;;;;;;4972283;28;20464;-79
2021/07/09 08:58:11;;;;;;;21.93;15.13;;;18.60;99.90;;;;;;4947967;28;20467;-80
2021/07/09 09:00:42;;;;;;;17.73;13.27;;;18.60;99.90;;;;;;4960571;28;20471;-79
2021/07/09 09:03:24;;;;;;;18.50;13.70;;;18.60;99.90;;;;;;4986661;28;20551;-78
2021/07/09 09:06:00;;;;;;;20.20;13.17;;;18.70;99.90;;;;;;4968250;28;20562;-77
2021/07/09 09:12:05;;;;;;;19.67;12.53;;;18.80;99.90;;;;;;4972364;28;20511;-77
2021/07/09 09:14:36;;;;;;;21.50;14.20;;;18.80;99.90;;;;;;4965998;28;20500;-78
2021/07/09 09:17:35;;;;;;;20.27;14.60;;;18.90;99.90;;;;;;4969656;28;20465;-78
2021/07/09 09:20:57;;;;;;;22.27;15.27;;;18.90;99.90;;;;;;4972501;28;20520;-77
2021/07/09 09:23:42;;;;;;;17.33;11.20;;;18.90;99.90;;;;;;4961833;28;20894;-80
2021/07/09 09:30:20;;;;;;;18.30;13.13;;;19.00;99.90;;;;;;4882364;29;20478;-77
2021/07/09 09:34:00;;;;;;;;;;;;;;;;;;;;;
2021/07/09 09:36:21;;;;;;;20.53;14.73;;;19.20;99.90;;;;;;4975758;28;20456;-78
2021/07/09 09:38:59;;;;;;;17.37;13.30;;;19.20;99.90;;;;;;4938076;28;20525;-78
2021/07/09 09:41:31;;;;;;;21.20;13.77;;;19.20;99.90;;;;;;4936431;28;20232;-78
2021/07/09 09:45:07;;;;;;;;;;;;;;;;;;;;;
2021/07/09 09:48:13;;;;;;;20.97;13.90;;;19.30;99.90;;;;;;4895803;28;20499;-79
2021/07/09 09:53:35;;;;;;;17.47;13.77;;;19.50;99.90;;;;;;5419397;23;20640;-79
2021/07/09 09:56:33;;;;;;;18.80;13.43;;;19.60;99.90;;;;;;4956617;28;20882;-79
2021/07/09 10:00:03;;;;;;;16.60;12.53;;;19.60;99.90;;;;;;4914296;28;20468;-80
2021/07/09 10:06:55;;;;;;;14.93;12.50;;;19.80;99.90;;;;;;4879406;29;20482;-79
2021/07/09 10:13:28;;;;;;;17.57;11.63;;;20.00;99.90;;;;;;5220302;23;20527;-79
2021/07/09 10:16:43;;;;;;;14.23;12.07;;;20.00;99.90;;;;;;4939734;28;20464;-80
2021/07/09 10:19:27;;;;;;;15.63;13.07;;;20.10;99.90;;;;;;4919495;28;20466;-79
2021/07/09 10:25:02;;;;;;;17.83;12.40;;;20.30;99.90;;;;;;5406879;23;22112;-77
2021/07/09 10:35:47;;;;;;;11.90;10.00;;;20.40;99.90;;;;;;4889164;29;20492;-78
2021/07/09 10:42:42;;;;;;;14.70;11.17;;;20.70;99.90;;;;;;4887352;29;20522;-80
2021/07/09 10:49:51;;;;;;;16.43;12.17;;;21.00;99.90;;;;;;4895589;29;20494;-80
2021/07/09 10:52:50;;;;;;;14.83;11.73;;;21.10;99.90;;;;;;4839009;29;20986;-80
2021/07/09 10:55:58;;;;;;;15.50;10.93;;;21.10;99.90;;;;;;4893144;29;20879;-80
2021/07/09 10:59:12;;;;;;;11.77;9.30;;;21.20;99.90;;;;;;4910880;29;20960;-80
2021/07/09 11:06:30;;;;;;;13.40;11.20;;;21.30;99.90;;;;;;4909510;28;20491;-81
2021/07/09 11:09:14;;;;;;;13.47;11.03;;;21.40;99.90;;;;;;4881079;29;20533;-80
2021/07/09 11:11:52;;;;;;;12.87;10.23;;;21.50;99.90;;;;;;4872237;29;20498;-81
2021/07/09 11:19:07;;;;;;;17.20;12.13;;;21.60;99.90;;;;;;4855989;29;20558;-81
2021/07/09 11:25:48;;;;;;;;;;;;;;;;;;;;;
2021/07/09 11:29:27;;;;;;;11.33;9.90;;;21.80;99.90;;;;;;4894490;29;20975;-81
2021/07/09 11:35:37;;;;;;;19.27;12.20;;;21.90;99.90;;;;;;4941967;29;20472;-82
2021/07/09 11:38:08;;;;;;;15.20;12.67;;;21.90;99.90;;;;;;4946543;28;20503;-81
2021/07/09 11:40:37;;;;;;;17.83;13.03;;;21.80;99.90;;;;;;4971724;28;20686;-78
2021/07/09 11:43:07;;;;;;;18.77;12.20;;;21.80;99.90;;;;;;5000876;28;20597;-79
2021/07/09 11:46:09;;;;;;;10.87;7.93;;;21.80;99.90;;;;;;4986279;28;20464;-79
2021/07/09 11:48:35;;;;;;;17.97;13.17;;;21.70;99.90;;;;;;4962568;28;20472;-80
2021/07/09 11:51:05;;;;;;;19.53;13.43;;;21.60;99.90;;;;;;4964873;28;20463;-79
2021/07/09 11:53:37;;;;;;;16.87;12.87;;;21.70;99.90;;;;;;4985380;28;20524;-79
2021/07/09 11:56:21;;;;;;;16.63;12.90;;;21.80;99.90;;;;;;4989646;28;20522;-79
2021/07/09 11:59:12;;;;;;;17.27;13.20;;;21.80;99.90;;;;;;4988361;28;20828;-79
2021/07/09 12:06:05;;;;;;;15.40;13.00;;;21.90;99.90;;;;;;5003144;28;20447;-79
2021/07/09 12:12:51;;;;;;;16.00;11.10;;;22.10;99.90;;;;;;5366766;23;20632;-78
2021/07/09 12:15:51;;;;;;;14.07;11.00;;;22.10;99.90;;;;;;4987015;28;20556;-78
2021/07/09 12:18:59;;;;;;;13.37;11.97;;;22.20;99.90;;;;;;4951864;28;20475;-78
2021/07/09 12:26:02;;;;;;;19.53;15.70;;;22.20;99.90;;;;;;4991747;28;20917;-77
2021/07/09 12:36:07;;;;;;;17.17;13.80;;;22.10;99.90;;;;;;4993114;28;20470;-80
2021/07/09 12:39:26;;;;;;;18.17;13.37;;;22.10;99.90;;;;;;4975161;28;20531;-80
2021/07/09 12:42:08;;;;;;;17.10;13.70;;;22.10;99.90;;;;;;4976046;28;20520;-80
2021/07/09 12:44:37;;;;;;;16.40;12.80;;;22.00;99.90;;;;;;4948746;28;20569;-80
2021/07/09 12:47:08;;;;;;;16.40;12.47;;;22.10;99.90;;;;;;4958736;28;20449;-80
2021/07/09 12:49:36;;;;;;;19.10;14.17;;;22.10;99.90;;;;;;4971272;28;20508;-80
2021/07/09 12:52:07;;;;;;;18.70;12.83;;;22.00;99.90;;;;;;4948026;28;20484;-80
2021/07/09 12:54:33;;;;;;;16.20;12.63;;;21.90;99.90;;;;;;4973248;28;20652;-80
2021/07/09 12:57:01;;;;;;;13.60;11.27;;;22.00;99.90;;;;;;4962403;28;20508;-80
2021/07/09 12:59:29;;;;;;;13.53;11.00;;;21.90;99.90;;;;;;4942836;28;20544;-80
2021/07/09 13:02:00;;;;;;;11.80;9.33;;;22.00;99.90;;;;;;4965736;28;20469;-80
2021/07/09 13:04:31;;;;;;;12.30;10.33;;;21.90;99.90;;;;;;4966008;28;20512;-80
2021/07/09 13:07:11;;;;;;;13.87;11.03;;;21.80;99.90;;;;;;4976041;28;20472;-80
2021/07/09 13:09:40;;;;;;;13.17;11.00;;;21.90;99.90;;;;;;4961041;28;20889;-80
2021/07/09 13:12:15;;;;;;;13.03;10.13;;;21.90;99.90;;;;;;4968934;28;20481;-81
2021/07/09 13:14:51;;;;;;;9.50;8.50;;;22.10;99.90;;;;;;4964214;28;20465;-80
2021/07/09 13:17:20;;;;;;;13.90;10.40;;;22.20;99.90;;;;;;4972627;28;20515;-80
2021/07/09 13:20:05;;;;;;;10.07;9.00;;;22.30;99.90;;;;;;4940458;28;20509;-80
2021/07/09 13:22:48;;;;;;;9.90;8.90;;;22.40;99.90;;;;;;4974094;28;20465;-80
2021/07/09 13:25:26;;;;;;;11.23;8.87;;;22.40;99.90;;;;;;4980521;28;20457;-79
2021/07/09 13:27:57;;;;;;;8.20;7.33;;;22.60;99.90;;;;;;4970122;28;20456;-80
2021/07/09 13:30:23;;;;;;;7.10;6.40;;;22.50;99.90;;;;;;4978777;28;20541;-80
2021/07/09 13:32:55;;;;;;;7.80;7.00;;;22.40;99.90;;;;;;4957541;28;20517;-80
2021/07/09 13:35:21;;;;;;;6.40;5.90;;;22.50;99.90;;;;;;4972857;28;20448;-80
2021/07/09 13:37:47;;;;;;;6.63;6.13;;;22.50;99.90;;;;;;4974813;28;20881;-80
2021/07/09 13:40:15;;;;;;;6.40;5.80;;;22.70;99.90;;;;;;4991039;28;20285;-80
2021/07/09 13:42:41;;;;;;;6.93;6.23;;;22.90;99.90;;;;;;4986514;28;20260;-80
2021/07/09 13:45:11;;;;;;;7.23;6.63;;;23.00;99.90;;;;;;4974285;28;20547;-80
2021/07/09 13:47:39;;;;;;;7.37;6.63;;;23.10;99.90;;;;;;4975513;28;21027;-80
2021/07/09 13:50:06;;;;;;;7.40;6.63;;;23.20;99.90;;;;;;4973382;28;20495;-80
2021/07/09 13:52:32;;;;;;;5.97;4.93;;;23.00;99.90;;;;;;4974729;28;20472;-80
2021/07/09 13:54:59;;;;;;;6.90;6.30;;;22.90;99.90;;;;;;4994447;28;20533;-80
2021/07/09 13:57:25;;;;;;;6.80;6.20;;;23.00;99.90;;;;;;4959777;28;20605;-80
2021/07/09 13:59:51;;;;;;;6.27;5.67;;;23.10;99.90;;;;;;4972925;28;20461;-80
2021/07/09 14:02:17;;;;;;;7.30;6.53;;;23.00;99.90;;;;;;4957414;28;20692;-80
2021/07/09 14:04:43;;;;;;;6.90;5.73;;;23.00;99.90;;;;;;4970233;28;20222;-80
2021/07/09 14:07:09;;;;;;;6.50;5.90;;;23.00;99.90;;;;;;4976507;28;20471;-80
2021/07/09 14:09:35;;;;;;;6.97;5.40;;;23.00;99.90;;;;;;4957049;28;20242;-80
2021/07/09 14:12:04;;;;;;;7.10;6.50;;;22.80;99.90;;;;;;4967119;28;20304;-80
2021/07/09 14:14:29;;;;;;;6.90;6.20;;;22.90;99.90;;;;;;4976015;28;20465;-80
2021/07/09 14:16:55;;;;;;;6.20;5.47;;;23.00;99.90;;;;;;4976432;28;20519;-80
2021/07/09 14:19:21;;;;;;;7.40;6.70;;;22.90;99.90;;;;;;4975701;28;20225;-80
2021/07/09 14:21:47;;;;;;;8.13;7.33;;;22.90;99.90;;;;;;4968781;28;20232;-80
2021/07/09 14:24:13;;;;;;;8.53;7.73;;;22.90;99.90;;;;;;4984937;28;20229;-79
2021/07/09 14:26:41;;;;;;;9.20;8.10;;;22.90;99.90;;;;;;4973503;28;20225;-80
2021/07/09 14:29:09;;;;;;;8.50;7.70;;;22.90;99.90;;;;;;4961598;28;20315;-82
2021/07/09 14:31:35;;;;;;;9.13;7.70;;;22.80;99.90;;;;;;4972775;28;21000;-82
2021/07/09 14:34:05;;;;;;;7.23;6.53;;;22.80;99.90;;;;;;4968019;28;20461;-80
2021/07/09 14:36:30;;;;;;;7.97;7.17;;;22.80;99.90;;;;;;4972130;28;20454;-80
2021/07/09 14:39:02;;;;;;;8.47;7.67;;;22.90;99.90;;;;;;4980125;28;20508;-80
2021/07/09 14:41:28;;;;;;;8.80;7.97;;;22.90;99.90;;;;;;4989366;28;20225;-80
2021/07/09 14:43:54;;;;;;;9.70;7.70;;;22.80;99.90;;;;;;4973209;28;20460;-80
2021/07/09 14:46:20;;;;;;;7.20;6.50;;;22.90;99.90;;;;;;4960938;28;20481;-80
2021/07/09 14:48:46;;;;;;;8.00;7.30;;;23.00;99.90;;;;;;4988842;28;20233;-79
2021/07/09 14:51:13;;;;;;;8.07;7.10;;;23.00;99.90;;;;;;4973156;28;20226;-80
2021/07/09 14:53:40;;;;;;;9.10;8.20;;;23.00;99.90;;;;;;4970773;28;20315;-80
2021/07/09 14:56:16;;;;;;;10.50;7.50;;;23.10;99.90;;;;;;4973564;28;20461;-80
2021/07/09 14:58:43;;;;;;;8.50;7.70;;;23.00;99.90;;;;;;4956791;28;20969;-79
2021/07/09 15:01:14;;;;;;;8.50;6.60;;;23.10;99.90;;;;;;4965507;28;20469;-80
2021/07/09 15:04:54;;;;;;;8.53;7.70;;;23.10;99.90;;;;;;4954040;28;20488;-81
2021/07/09 15:07:35;;;;;;;9.70;7.17;;;23.10;99.90;;;;;;4895868;29;20459;-80
2021/07/09 15:10:26;;;;;;;7.60;6.80;;;23.20;99.90;;;;;;4925127;28;20502;-80
2021/07/09 15:12:52;;;;;;;7.67;6.93;;;23.20;99.90;;;;;;4974803;28;20229;-81
2021/07/09 15:15:34;;;;;;;8.47;7.67;;;23.20;99.90;;;;;;4966878;28;20470;-80
2021/07/09 15:18:05;;;;;;;7.40;6.77;;;23.20;99.90;;;;;;4956373;28;20456;-80
2021/07/09 15:20:54;;;;;;;8.13;7.30;;;23.20;99.90;;;;;;4982749;28;21019;-80
2021/07/09 15:23:20;;;;;;;7.40;6.70;;;23.20;99.90;;;;;;4932788;28;20965;-80
2021/07/09 15:25:56;;;;;;;7.23;6.50;;;23.20;99.90;;;;;;4963799;28;20452;-81
2021/07/09 15:29:05;;;;;;;8.70;6.93;;;23.10;99.90;;;;;;4960560;28;20539;-80
2021/07/09 15:31:36;;;;;;;7.47;6.80;;;23.10;99.90;;;;;;4975791;28;20585;-81
2021/07/09 15:34:18;;;;;;;;;;;;;;;;;;;;;
2021/07/09 15:37:17;;;;;;;6.77;6.17;;;23.10;99.90;;;;;;4944367;29;20542;-81
2021/07/09 15:39:44;;;;;;;9.63;7.00;;;23.20;99.90;;;;;;4985548;28;21100;-79
2021/07/09 15:42:10;;;;;;;7.57;6.87;;;23.20;99.90;;;;;;4978262;28;20656;-80
2021/07/09 15:44:36;;;;;;;7.80;6.90;;;23.20;99.90;;;;;;4947108;28;21028;-80
2021/07/09 15:47:04;;;;;;;7.40;6.60;;;23.20;99.90;;;;;;4972847;28;20536;-81
2021/07/09 15:49:30;;;;;;;8.10;7.30;;;23.20;99.90;;;;;;4977930;28;20720;-80
2021/07/09 15:51:57;;;;;;;9.40;8.20;;;23.20;99.90;;;;;;4961822;28;20496;-80
2021/07/09 15:54:23;;;;;;;8.93;8.00;;;23.20;99.90;;;;;;4977933;28;20473;-80
2021/07/09 15:56:48;;;;;;;8.07;7.27;;;23.20;99.90;;;;;;4993560;28;21312;-79
2021/07/09 15:59:14;;;;;;;10.53;7.30;;;23.20;99.90;;;;;;4992492;28;20224;-80